Time;durP1;ratioP1;P1;durP2;ratioP2;P2;SDS_P1;SDS_P2;PMS_P1;PMS_P2;Temp;Humidity;BMP_temperature;BMP_pressure;BME280_temperature;BME280_humidity;BME280_pressure;Samples;Min_cycle;Max_cycle;Signal;HPM_P1;HPM_P2
2021/12/26 00:00:12;;;;;;;;;;;;;;;1.37;73.32;99491.09;5109223;28;19927;-83
2021/12/26 00:02:37;;;;;;;;;;;;;;;1.29;74.10;99496.13;5108125;28;19980;-83
2021/12/26 00:05:03;;;;;;;;;;;;;;;1.53;73.99;99503.53;5108788;28;20010;-84
2021/12/26 00:07:29;;;;;;;;;;;;;;;1.48;74.35;99504.28;5108518;28;19927;-84
2021/12/26 00:09:54;;;;;;;;;;;;;;;1.52;74.45;99499.16;5108394;27;20317;-83
2021/12/26 00:12:19;;;;;;;;;;;;;;;1.47;75.26;99507.72;5107735;28;19947;-83
2021/12/26 00:14:45;;;;;;;;;;;;;;;1.49;75.07;99509.50;5109048;28;19916;-83
2021/12/26 00:17:10;;;;;;;;;;;;;;;1.69;74.67;99515.06;5107751;28;19919;-83
2021/12/26 00:19:36;;;;;;;;;;;;;;;1.49;75.50;99522.50;5109159;28;20012;-84
2021/12/26 00:22:01;;;;;;;;;;;;;;;1.21;76.61;99519.38;5107734;27;19923;-83
2021/12/26 00:24:26;;;;;;;;;;;;;;;1.25;76.96;99523.78;5108401;28;19931;-83
2021/12/26 00:26:52;;;;;;;;;;;;;;;0.97;78.11;99524.94;5107732;28;20403;-82
2021/12/26 00:29:17;;;;;;;;;;;;;;;1.30;77.46;99528.19;5107565;28;19931;-82
2021/12/26 00:31:42;;;;;;;;;;;;;;;1.39;76.65;99531.88;5108833;28;19919;-84
2021/12/26 00:34:08;;;;;;;;;;;;;;;1.52;76.17;99529.50;5107978;28;20310;-83
2021/12/26 00:36:33;;;;;;;;;;;;;;;1.71;75.31;99539.38;5108569;27;19938;-83
2021/12/26 00:38:58;;;;;;;;;;;;;;;1.63;74.48;99530.56;5108349;28;20468;-83
2021/12/26 00:41:24;;;;;;;;;;;;;;;1.71;73.96;99536.78;5108054;28;20390;-83
2021/12/26 00:43:49;;;;;;;;;;;;;;;1.66;73.79;99521.94;5108274;28;19966;-83
2021/12/26 00:46:15;;;;;;;;;;;;;;;1.57;73.20;99528.72;5108184;27;20006;-83
2021/12/26 00:48:40;;;;;;;;;;;;;;;1.29;73.12;99536.84;5107717;28;19915;-83
2021/12/26 00:51:06;;;;;;;;;;;;;;;1.34;73.08;99533.47;5108439;28;20648;-82
2021/12/26 00:53:33;;;;;;;;;;;;;;;1.36;73.25;99542.19;5108114;28;20519;-82
2021/12/26 00:55:58;;;;;;;;;;;;;;;1.48;73.08;99532.88;5107882;28;20445;-83
2021/12/26 00:58:24;;;;;;;;;;;;;;;1.47;72.45;99533.72;5106908;28;19924;-83
2021/12/26 01:00:50;;;;;;;;;;;;;;;1.43;72.80;99541.44;5108068;28;20080;-83
2021/12/26 01:03:17;;;;;;;;;;;;;;;1.52;72.14;99543.38;5094493;28;19924;-82
2021/12/26 01:05:44;;;;;;;;;;;;;;;1.55;72.09;99535.63;5087630;28;19920;-84
2021/12/26 01:08:13;;;;;;;;;;;;;;;1.49;71.91;99532.91;5086484;28;19924;-83
2021/12/26 01:10:41;;;;;;;;;;;;;;;1.50;71.71;99533.78;5088224;28;19924;-83
2021/12/26 01:13:31;;;;;;;;;;;;;;;1.45;72.07;99530.22;5107617;28;19974;-85
2021/12/26 01:15:59;;;;;;;;;;;;;;;1.27;71.84;99528.13;5107428;28;19916;-83
2021/12/26 01:18:26;;;;;;;;;;;;;;;1.32;71.86;99518.72;5107938;28;19920;-84
2021/12/26 01:20:57;;;;;;;;;;;;;;;1.16;72.21;99510.63;5097285;28;19924;-83
2021/12/26 01:23:24;;;;;;;;;;;;;;;0.62;74.38;99511.19;5108017;28;19980;-83
2021/12/26 01:25:50;;;;;;;;;;;;;;;0.73;74.08;99504.53;5106098;28;19939;-83
2021/12/26 01:28:18;;;;;;;;;;;;;;;0.64;75.83;99512.13;5107141;28;19920;-83
2021/12/26 01:30:43;;;;;;;;;;;;;;;0.47;75.80;99517.81;5107661;28;19920;-84
2021/12/26 01:33:10;;;;;;;;;;;;;;;0.83;74.79;99506.47;5106972;28;19983;-83
2021/12/26 01:35:36;;;;;;;;;;;;;;;1.04;74.04;99503.44;5106240;28;19924;-83
2021/12/26 01:38:01;;;;;;;;;;;;;;;0.83;74.76;99506.47;5106436;28;19920;-83
2021/12/26 01:40:27;;;;;;;;;;;;;;;1.00;74.48;99493.81;5106425;28;19923;-84
2021/12/26 01:42:52;;;;;;;;;;;;;;;1.07;73.97;99497.44;5107655;28;20022;-83
2021/12/26 01:45:18;;;;;;;;;;;;;;;1.13;73.70;99489.78;5106637;28;19924;-83
2021/12/26 01:47:46;;;;;;;;;;;;;;;0.43;76.93;99499.53;5107386;28;20416;-83
2021/12/26 01:50:12;;;;;;;;;;;;;;;0.67;77.91;99492.28;5107101;28;19923;-82
2021/12/26 01:52:37;;;;;;;;;;;;;;;0.45;78.47;99503.94;5103234;28;19928;-82
2021/12/26 01:57:49;;;;;;;;;;;;;;;0.80;77.72;99497.75;5085864;28;19928;-83
2021/12/26 02:00:15;;;;;;;;;;;;;;;0.64;79.01;99499.16;5086838;28;20309;-83
2021/12/26 02:02:40;;;;;;;;;;;;;;;0.75;78.64;99495.03;5086256;28;20018;-82
2021/12/26 02:05:06;;;;;;;;;;;;;;;0.95;77.91;99485.06;5087232;28;19920;-82
2021/12/26 02:07:31;;;;;;;;;;;;;;;1.24;77.16;99480.44;5086376;28;19924;-83
2021/12/26 02:09:56;;;;;;;;;;;;;;;1.36;76.47;99485.03;5087003;28;20382;-82
2021/12/26 02:12:22;;;;;;;;;;;;;;;1.34;75.72;99488.44;5128620;27;20019;-82
2021/12/26 02:14:47;;;;;;;;;;;;;;;1.22;75.14;99489.94;5106198;28;19924;-82
2021/12/26 02:17:14;;;;;;;;;;;;;;;1.14;75.38;99491.50;5105814;28;19942;-83
2021/12/26 02:19:40;;;;;;;;;;;;;;;0.77;75.60;99503.72;5106920;28;20386;-82
2021/12/26 02:22:11;;;;;;;;;;;;;;;0.91;75.26;99500.56;5087291;28;20004;-83
2021/12/26 02:25:09;;;;;;;;;;;;;;;0.85;74.84;99501.31;5086315;28;19920;-83
2021/12/26 02:27:32;;;;;;;;;;;;;;;0.96;74.18;99496.31;5086140;28;19920;-83
2021/12/26 02:30:03;;;;;;;;;;;;;;;1.02;74.21;99496.44;5086536;28;19926;-83
2021/12/26 02:32:30;;;;;;;;;;;;;;;1.05;73.80;99497.41;5093107;28;19973;-83
2021/12/26 02:34:55;;;;;;;;;;;;;;;1.11;73.65;99488.84;5107031;28;19970;-83
2021/12/26 02:37:21;;;;;;;;;;;;;;;1.03;73.33;99491.28;5106129;28;19959;-83
2021/12/26 02:39:46;;;;;;;;;;;;;;;0.99;74.06;99488.59;5106682;28;19915;-83
2021/12/26 02:42:11;;;;;;;;;;;;;;;1.11;73.79;99499.25;5089503;28;19930;-83
2021/12/26 02:44:37;;;;;;;;;;;;;;;1.06;73.95;99490.50;5087207;28;19927;-83
2021/12/26 02:47:02;;;;;;;;;;;;;;;1.13;73.69;99486.28;5089144;28;19926;-82
2021/12/26 02:49:28;;;;;;;;;;;;;;;1.27;73.41;99483.94;5094332;28;19999;-83
2021/12/26 02:51:54;;;;;;;;;;;;;;;1.35;73.28;99483.25;5110623;28;19959;-83
2021/12/26 02:54:22;;;;;;;;;;;;;;;1.20;73.87;99477.75;5109959;28;20366;-83
2021/12/26 02:56:47;;;;;;;;;;;;;;;1.24;73.51;99474.41;5110139;28;19920;-83
2021/12/26 02:59:12;;;;;;;;;;;;;;;1.30;73.24;99474.50;5109342;28;19973;-84
2021/12/26 03:01:38;;;;;;;;;;;;;;;1.42;72.70;99468.63;5109894;28;19989;-83
2021/12/26 03:04:04;;;;;;;;;;;;;;;1.36;72.97;99473.72;5109436;27;19920;-83
2021/12/26 03:06:40;;;;;;;;;;;;;;;1.13;73.47;99471.59;5110130;28;20014;-83
2021/12/26 03:09:06;;;;;;;;;;;;;;;1.21;73.65;99488.19;5090967;28;20721;-83
2021/12/26 03:11:32;;;;;;;;;;;;;;;1.37;73.19;99473.75;5089349;28;19982;-83
2021/12/26 03:13:57;;;;;;;;;;;;;;;1.42;73.17;99481.63;5088895;28;19993;-84
2021/12/26 03:16:23;;;;;;;;;;;;;;;1.27;73.32;99486.53;5092445;28;19924;-83
2021/12/26 03:18:48;;;;;;;;;;;;;;;0.81;74.54;99487.38;5091105;28;19927;-83
2021/12/26 03:21:14;;;;;;;;;;;;;;;1.07;74.16;99474.06;5089612;28;19926;-84
2021/12/26 03:23:39;;;;;;;;;;;;;;;1.22;74.00;99478.66;5089637;28;19928;-84
2021/12/26 03:26:05;;;;;;;;;;;;;;;1.25;73.75;99489.13;5089170;28;19924;-83
2021/12/26 03:28:31;;;;;;;;;;;;;;;0.99;74.44;99489.50;5089195;28;19920;-83
2021/12/26 03:30:57;;;;;;;;;;;;;;;0.91;75.11;99488.44;5089276;28;19935;-83
2021/12/26 03:33:23;;;;;;;;;;;;;;;1.22;74.23;99489.94;5089379;28;19916;-83
2021/12/26 03:35:49;;;;;;;;;;;;;;;1.27;74.01;99482.25;5089088;28;19920;-83
2021/12/26 03:38:16;;;;;;;;;;;;;;;1.16;74.32;99478.53;5089376;28;19965;-83
2021/12/26 03:40:42;;;;;;;;;;;;;;;1.34;73.94;99491.03;5089080;28;19916;-84
2021/12/26 03:43:08;;;;;;;;;;;;;;;1.29;73.89;99487.47;5088825;28;19923;-83
2021/12/26 03:45:34;;;;;;;;;;;;;;;1.30;73.78;99487.50;5089201;28;19943;-83
2021/12/26 03:47:59;;;;;;;;;;;;;;;1.21;73.95;99498.59;5089094;28;19923;-83
2021/12/26 03:50:28;;;;;;;;;;;;;;;1.25;73.67;99499.50;5088958;28;19920;-83
2021/12/26 03:52:56;;;;;;;;;;;;;;;1.32;73.60;99509.19;5088921;28;19967;-84
2021/12/26 03:55:22;;;;;;;;;;;;;;;1.37;74.15;99504.94;5088564;28;19971;-83
2021/12/26 03:57:48;;;;;;;;;;;;;;;1.29;74.08;99505.66;5088626;28;19971;-84
2021/12/26 04:00:14;;;;;;;;;;;;;;;1.19;74.97;99502.88;5089010;28;20307;-82
2021/12/26 04:02:40;;;;;;;;;;;;;;;1.39;74.31;99492.88;5088867;28;19916;-82
2021/12/26 04:05:06;;;;;;;;;;;;;;;1.28;74.43;99502.16;5088788;28;20022;-83
2021/12/26 04:07:31;;;;;;;;;;;;;;;1.38;73.93;99503.25;5092330;28;20064;-84
2021/12/26 04:09:56;;;;;;;;;;;;;;;1.47;73.73;99495.63;5108782;28;20381;-83
2021/12/26 04:12:22;;;;;;;;;;;;;;;1.46;73.65;99506.84;5107852;28;19968;-83
2021/12/26 04:14:47;;;;;;;;;;;;;;;1.58;73.16;99498.41;5108759;28;20385;-84
2021/12/26 04:17:12;;;;;;;;;;;;;;;1.53;73.14;99502.63;5108006;28;20441;-83
2021/12/26 04:19:38;;;;;;;;;;;;;;;1.32;73.05;99511.78;5109156;28;20403;-84
2021/12/26 04:22:03;;;;;;;;;;;;;;;1.37;73.20;99504.94;5107300;27;19920;-85
2021/12/26 04:24:30;;;;;;;;;;;;;;;1.33;73.15;99510.06;5108689;28;19968;-84
2021/12/26 04:26:56;;;;;;;;;;;;;;;1.34;73.13;99506.63;5109783;27;19916;-84
2021/12/26 04:29:21;;;;;;;;;;;;;;;1.29;72.92;99514.31;5112682;28;19923;-85
2021/12/26 04:31:46;;;;;;;;;;;;;;;1.18;73.35;99514.13;5112999;28;19979;-85
2021/12/26 04:34:12;;;;;;;;;;;;;;;1.11;73.29;99517.44;5112963;28;20635;-84
2021/12/26 04:36:37;;;;;;;;;;;;;;;1.09;73.39;99513.06;5112553;28;19966;-84
2021/12/26 04:39:03;;;;;;;;;;;;;;;1.07;73.63;99518.22;5112681;28;19919;-84
2021/12/26 04:41:28;;;;;;;;;;;;;;;1.09;73.63;99520.84;5113076;28;19973;-84
2021/12/26 04:43:54;;;;;;;;;;;;;;;1.14;73.47;99516.63;5112453;28;19919;-84
2021/12/26 04:46:19;;;;;;;;;;;;;;;1.21;73.38;99515.91;5112709;28;19920;-84
2021/12/26 04:48:44;;;;;;;;;;;;;;;1.35;72.82;99517.03;5112671;28;19916;-84
2021/12/26 04:51:10;;;;;;;;;;;;;;;0.96;73.60;99523.19;5112311;28;20309;-82
2021/12/26 04:53:36;;;;;;;;;;;;;;;1.02;73.45;99518.13;5112383;28;19916;-83
2021/12/26 04:56:02;;;;;;;;;;;;;;;1.13;73.19;99502.75;5112418;28;19912;-84
2021/12/26 04:58:27;;;;;;;;;;;;;;;1.20;73.40;99509.81;5112438;28;20309;-83
2021/12/26 05:00:53;;;;;;;;;;;;;;;1.16;73.26;99515.81;5111488;28;20381;-84
2021/12/26 05:03:18;;;;;;;;;;;;;;;1.17;72.98;99532.28;5111140;28;20372;-83
2021/12/26 05:05:44;;;;;;;;;;;;;;;0.95;73.84;99523.16;5110011;28;19915;-83
2021/12/26 05:08:10;;;;;;;;;;;;;;;0.70;74.97;99522.66;5111554;28;19930;-83
2021/12/26 05:10:35;;;;;;;;;;;;;;;0.86;74.91;99523.84;5111398;28;19927;-84
2021/12/26 05:13:02;;;;;;;;;;;;;;;1.04;74.89;99528.56;5111720;28;19964;-84
2021/12/26 05:15:27;;;;;;;;;;;;;;;1.16;74.48;99522.72;5111349;28;20408;-84
2021/12/26 05:17:53;;;;;;;;;;;;;;;1.02;74.55;99520.72;5110950;27;20014;-84
2021/12/26 05:20:19;;;;;;;;;;;;;;;1.02;74.94;99510.34;5112206;28;19915;-84
2021/12/26 05:22:45;;;;;;;;;;;;;;;1.23;74.29;99506.41;5109590;28;20014;-84
2021/12/26 05:25:10;;;;;;;;;;;;;;;1.20;74.41;99515.00;5111991;28;19926;-84
2021/12/26 05:27:35;;;;;;;;;;;;;;;0.98;74.76;99515.44;5111782;28;19965;-84
2021/12/26 05:30:01;;;;;;;;;;;;;;;1.10;74.44;99518.28;5112083;28;19916;-84
2021/12/26 05:32:26;;;;;;;;;;;;;;;1.35;74.21;99529.19;5106992;28;20103;-85
2021/12/26 05:34:51;;;;;;;;;;;;;;;1.27;74.33;99517.72;5091685;28;19967;-85
2021/12/26 05:37:17;;;;;;;;;;;;;;;1.29;74.09;99516.06;5089103;28;19920;-85
2021/12/26 05:39:43;;;;;;;;;;;;;;;1.42;73.63;99513.72;5091306;28;19916;-83
2021/12/26 05:42:10;;;;;;;;;;;;;;;1.28;73.46;99520.34;5105246;28;19924;-83
2021/12/26 05:44:36;;;;;;;;;;;;;;;1.32;73.31;99521.31;5111646;28;19937;-85
2021/12/26 05:47:01;;;;;;;;;;;;;;;1.35;73.01;99508.38;5109235;28;19915;-85
2021/12/26 05:49:27;;;;;;;;;;;;;;;1.23;73.19;99511.59;5110753;28;19927;-82
2021/12/26 05:51:53;;;;;;;;;;;;;;;1.30;73.11;99510.91;5111640;28;19916;-84
2021/12/26 05:54:18;;;;;;;;;;;;;;;1.40;73.19;99522.34;5110806;28;19915;-82
2021/12/26 05:56:44;;;;;;;;;;;;;;;1.16;73.48;99526.22;5111843;28;19915;-82
2021/12/26 05:59:09;;;;;;;;;;;;;;;1.06;73.68;99527.72;5111660;28;19922;-82
2021/12/26 06:01:34;;;;;;;;;;;;;;;1.17;73.82;99530.53;5111653;28;19973;-82
2021/12/26 06:04:00;;;;;;;;;;;;;;;0.84;75.33;99526.41;5110647;28;19947;-82
2021/12/26 06:06:25;;;;;;;;;;;;;;;1.08;75.03;99532.94;5110168;28;19923;-83
2021/12/26 06:08:51;;;;;;;;;;;;;;;0.78;76.31;99528.88;5110501;28;19928;-82
2021/12/26 06:11:16;;;;;;;;;;;;;;;1.05;76.13;99533.78;5111664;28;20308;-82
2021/12/26 06:13:41;;;;;;;;;;;;;;;1.17;75.63;99540.06;5111487;28;19923;-82
2021/12/26 06:16:07;;;;;;;;;;;;;;;1.37;75.44;99533.53;5111361;28;19916;-84
2021/12/26 06:18:32;;;;;;;;;;;;;;;1.07;75.62;99547.69;5110638;28;19920;-84
2021/12/26 06:20:57;;;;;;;;;;;;;;;1.19;75.75;99553.97;5115743;27;19916;-83
2021/12/26 06:23:23;;;;;;;;;;;;;;;1.24;76.02;99555.81;5114238;28;19963;-83
2021/12/26 06:25:48;;;;;;;;;;;;;;;1.43;75.34;99561.38;5115446;27;20010;-84
2021/12/26 06:28:13;;;;;;;;;;;;;;;1.52;75.12;99556.38;5115184;28;19915;-84
2021/12/26 06:30:38;;;;;;;;;;;;;;;1.43;75.01;99567.44;5115266;28;19916;-84
2021/12/26 06:33:04;;;;;;;;;;;;;;;1.69;74.53;99576.63;5114328;28;20317;-84
2021/12/26 06:35:30;;;;;;;;;;;;;;;1.57;74.25;99585.91;5115309;28;19934;-85
2021/12/26 06:37:55;;;;;;;;;;;;;;;1.49;75.05;99582.31;5114405;28;19915;-83
2021/12/26 06:40:20;;;;;;;;;;;;;;;1.66;74.28;99573.97;5113598;28;19916;-84
2021/12/26 06:42:48;;;;;;;;;;;;;;;1.65;74.77;99559.19;5114577;27;19916;-83
2021/12/26 06:45:15;;;;;;;;;;;;;;;1.53;75.16;99573.72;5113501;28;19924;-84
2021/12/26 06:47:45;;;;;;;;;;;;;;;1.71;74.91;99564.50;5113986;28;20353;-82
2021/12/26 06:50:10;;;;;;;;;;;;;;;1.58;76.20;99568.63;5112620;28;19940;-84
2021/12/26 06:52:35;;;;;;;;;;;;;;;1.66;76.08;99555.75;5114411;28;19919;-83
2021/12/26 06:55:01;;;;;;;;;;;;;;;1.83;76.04;99556.06;5112794;28;19950;-82
2021/12/26 06:57:26;;;;;;;;;;;;;;;2.08;74.88;99549.56;5113960;28;19945;-84
2021/12/26 06:59:51;;;;;;;;;;;;;;;2.07;74.96;99547.78;5113550;28;20476;-82
2021/12/26 07:02:17;;;;;;;;;;;;;;;1.98;75.93;99553.75;5113841;28;20385;-83
2021/12/26 07:04:42;;;;;;;;;;;;;;;2.12;75.83;99551.38;5113674;27;20018;-81
2021/12/26 07:07:07;;;;;;;;;;;;;;;2.07;75.90;99555.59;5114052;28;19928;-83
2021/12/26 07:09:32;;;;;;;;;;;;;;;1.89;76.84;99566.59;5114551;28;19916;-82
2021/12/26 07:11:58;;;;;;;;;;;;;;;2.00;77.00;99565.03;5114337;28;20376;-82
2021/12/26 07:14:23;;;;;;;;;;;;;;;2.21;76.99;99561.03;5114476;28;20026;-82
2021/12/26 07:16:49;;;;;;;;;;;;;;;2.29;76.38;99559.47;5114434;28;19916;-82
2021/12/26 07:19:14;;;;;;;;;;;;;;;2.44;75.98;99564.00;5097490;28;19943;-82
2021/12/26 07:21:40;;;;;;;;;;;;;;;2.59;75.63;99560.78;5093625;28;19973;-83
2021/12/26 07:24:06;;;;;;;;;;;;;;;2.32;76.64;99562.13;5093136;28;19996;-83
2021/12/26 07:26:32;;;;;;;;;;;;;;;2.14;77.88;99570.47;5093743;28;19985;-83
2021/12/26 07:28:57;;;;;;;;;;;;;;;2.27;77.28;99574.16;5093849;28;19990;-83
2021/12/26 07:31:23;;;;;;;;;;;;;;;2.30;77.38;99579.41;5125377;27;19920;-83
2021/12/26 07:33:48;;;;;;;;;;;;;;;2.48;77.49;99568.44;5111216;28;19923;-83
2021/12/26 07:36:13;;;;;;;;;;;;;;;2.62;76.84;99566.03;5113708;28;19927;-83
2021/12/26 07:38:39;;;;;;;;;;;;;;;2.74;76.52;99560.16;5113700;28;19965;-84
2021/12/26 07:41:04;;;;;;;;;;;;;;;2.69;76.85;99575.72;5113017;28;19922;-84
2021/12/26 07:43:29;;;;;;;;;;;;;;;2.84;76.74;99559.41;5114018;28;20432;-85
2021/12/26 07:45:55;;;;;;;;;;;;;;;2.91;76.80;99570.81;5113927;28;20308;-84
2021/12/26 07:48:20;;;;;;;;;;;;;;;3.01;76.47;99568.34;5113630;28;20351;-84
2021/12/26 07:50:45;;;;;;;;;;;;;;;3.15;76.46;99580.66;5112138;28;20349;-83
2021/12/26 07:53:12;;;;;;;;;;;;;;;3.13;77.06;99578.03;5113717;27;20393;-83
2021/12/26 07:55:38;;;;;;;;;;;;;;;3.05;77.23;99580.53;5112446;28;19920;-85
2021/12/26 07:58:04;;;;;;;;;;;;;;;3.15;77.03;99580.66;5113580;28;19916;-85
2021/12/26 08:00:29;;;;;;;;;;;;;;;3.13;77.23;99569.34;5112838;28;19923;-85
2021/12/26 08:02:55;;;;;;;;;;;;;;;2.98;77.14;99577.84;5112529;28;19931;-83
2021/12/26 08:05:21;;;;;;;;;;;;;;;3.07;76.79;99577.97;5112846;27;20399;-83
2021/12/26 08:07:46;;;;;;;;;;;;;;;3.31;76.59;99576.53;5112121;28;20008;-84
2021/12/26 08:10:11;;;;;;;;;;;;;;;3.35;75.40;99568.78;5113227;28;19950;-84
2021/12/26 08:12:37;;;;;;;;;;;;;;;3.59;75.39;99578.59;5113192;28;19986;-84
2021/12/26 08:15:03;;;;;;;;;;;;;;;3.53;74.12;99590.72;5113590;28;20026;-84
2021/12/26 08:17:28;;;;;;;;;;;;;;;3.51;74.76;99584.63;5112209;28;19916;-84
2021/12/26 08:19:54;;;;;;;;;;;;;;;3.60;75.08;99576.88;5112633;28;19924;-84
2021/12/26 08:22:19;;;;;;;;;;;;;;;3.75;74.09;99581.38;5112689;28;19916;-84
2021/12/26 08:24:45;;;;;;;;;;;;;;;3.70;73.96;99580.47;5113011;28;20370;-84
2021/12/26 08:27:10;;;;;;;;;;;;;;;3.55;74.99;99586.38;5113004;28;19945;-84
2021/12/26 08:29:35;;;;;;;;;;;;;;;3.78;73.85;99570.13;5112761;28;19923;-84
2021/12/26 08:32:01;;;;;;;;;;;;;;;3.76;74.12;99563.13;5112275;28;19926;-84
2021/12/26 08:34:27;;;;;;;;;;;;;;;3.94;73.39;99556.38;5112934;27;20574;-84
2021/12/26 08:37:01;;;;;;;;;;;;;;;3.98;73.30;99550.28;5112248;28;19962;-84
2021/12/26 08:39:28;;;;;;;;;;;;;;;4.11;72.75;99546.09;5113172;28;19920;-84
2021/12/26 08:41:53;;;;;;;;;;;;;;;4.13;72.23;99547.81;5112659;28;19916;-84
2021/12/26 08:44:19;;;;;;;;;;;;;;;4.28;71.54;99541.00;5112724;28;19964;-84
2021/12/26 08:46:45;;;;;;;;;;;;;;;4.23;71.61;99545.28;5112755;28;20377;-84
2021/12/26 08:49:11;;;;;;;;;;;;;;;4.34;71.61;99542.78;5112794;28;19923;-84
2021/12/26 08:51:36;;;;;;;;;;;;;;;4.32;71.43;99549.72;5112786;28;19915;-84
2021/12/26 08:54:02;;;;;;;;;;;;;;;4.51;71.35;99535.06;5112609;28;20000;-84
2021/12/26 08:56:28;;;;;;;;;;;;;;;4.68;70.04;99538.69;5112616;28;19938;-84
2021/12/26 08:58:54;;;;;;;;;;;;;;;4.64;70.75;99534.28;5112147;28;19920;-83
2021/12/26 09:01:19;;;;;;;;;;;;;;;4.62;71.19;99526.44;5111447;28;19920;-84
2021/12/26 09:03:44;;;;;;;;;;;;;;;4.94;70.00;99538.84;5111176;28;19916;-85
2021/12/26 09:06:09;;;;;;;;;;;;;;;4.86;69.93;99532.66;5111652;28;20393;-84
2021/12/26 09:08:35;;;;;;;;;;;;;;;4.86;70.40;99539.66;5111466;28;19920;-85
2021/12/26 09:11:00;;;;;;;;;;;;;;;5.06;70.14;99539.75;5111401;27;19916;-83
2021/12/26 09:13:28;;;;;;;;;;;;;;;5.11;69.66;99545.88;5110670;28;20143;-84
2021/12/26 09:15:53;;;;;;;;;;;;;;;4.83;70.05;99544.00;5111285;28;20425;-84
2021/12/26 09:18:18;;;;;;;;;;;;;;;5.00;70.55;99543.19;5111433;27;19916;-84
2021/12/26 09:20:44;;;;;;;;;;;;;;;4.98;71.45;99550.16;5111673;28;19915;-85
2021/12/26 09:23:09;;;;;;;;;;;;;;;5.37;70.20;99545.97;5111218;28;20339;-84
2021/12/26 09:25:34;;;;;;;;;;;;;;;5.36;69.45;99541.59;5111628;28;20294;-84
2021/12/26 09:28:00;;;;;;;;;;;;;;;5.43;69.73;99546.00;5111055;28;19965;-83
2021/12/26 09:30:25;;;;;;;;;;;;;;;5.05;70.64;99535.38;5111148;28;19919;-84
2021/12/26 09:32:51;;;;;;;;;;;;;;;4.76;71.58;99529.13;5109998;28;19976;-84
2021/12/26 09:35:16;;;;;;;;;;;;;;;5.02;71.43;99533.63;5111404;28;19912;-84
2021/12/26 09:37:43;;;;;;;;;;;;;;;5.40;70.57;99532.91;5110530;27;20006;-85
2021/12/26 09:40:09;;;;;;;;;;;;;;;5.40;70.02;99519.81;5112067;28;20006;-86
2021/12/26 09:42:37;;;;;;;;;;;;;;;5.48;70.05;99539.03;5110868;28;20404;-85
2021/12/26 09:45:02;;;;;;;;;;;;;;;5.46;70.81;99539.91;5111197;28;19916;-86
2021/12/26 09:47:29;;;;;;;;;;;;;;;5.47;70.17;99542.53;5111199;28;19922;-84
2021/12/26 09:49:54;;;;;;;;;;;;;;;5.17;71.71;99536.31;5110620;28;20076;-83
2021/12/26 09:52:19;;;;;;;;;;;;;;;5.14;71.33;99533.69;5111789;28;20003;-84
2021/12/26 09:54:45;;;;;;;;;;;;;;;5.17;71.24;99528.47;5112625;28;19923;-84
2021/12/26 09:57:11;;;;;;;;;;;;;;;4.88;71.49;99530.06;5115689;28;19923;-85
2021/12/26 09:59:37;;;;;;;;;;;;;;;5.16;70.37;99533.72;5116044;28;20381;-84
2021/12/26 10:02:07;;;;;;;;;;;;;;;4.94;70.77;99519.63;5115845;28;19911;-84
2021/12/26 10:04:33;;;;;;;;;;;;;;;4.87;71.18;99528.34;5115308;28;19920;-84
2021/12/26 10:07:00;;;;;;;;;;;;;;;4.49;71.17;99527.22;5115645;28;19920;-83
2021/12/26 10:09:26;;;;;;;;;;;;;;;5.03;70.31;99527.53;5115344;28;20022;-84
2021/12/26 10:11:53;;;;;;;;;;;;;;;5.30;69.18;99526.78;5114659;28;19999;-84
2021/12/26 10:14:19;;;;;;;;;;;;;;;5.18;66.92;99518.88;5115506;28;19919;-84
2021/12/26 10:16:59;;;;;;;;;;;;;;;5.60;66.48;99513.78;5114427;28;19912;-84
2021/12/26 10:19:24;;;;;;;;;;;;;;;5.73;65.89;99515.53;5115409;28;19959;-85
2021/12/26 10:21:51;;;;;;;;;;;;;;;5.94;65.86;99496.38;5113523;28;20361;-84
2021/12/26 10:24:17;;;;;;;;;;;;;;;6.04;65.17;99497.28;5114103;28;20014;-86
2021/12/26 10:26:53;;;;;;;;;;;;;;;6.12;65.82;99499.88;5114069;28;19966;-84
2021/12/26 10:29:20;;;;;;;;;;;;;;;6.28;64.76;99485.94;5114426;28;19926;-84
2021/12/26 10:31:50;;;;;;;;;;;;;;;6.08;64.75;99493.78;5113613;28;19916;-85
2021/12/26 10:34:35;;;;;;;;;;;;;;;6.05;65.30;99499.03;5094020;28;19920;-86
2021/12/26 10:37:02;;;;;;;;;;;;;;;5.91;65.18;99496.38;5093377;28;20293;-87
2021/12/26 10:39:48;;;;;;;;;;;;;;;5.89;65.23;99491.13;5093943;28;20018;-86
2021/12/26 10:42:16;;;;;;;;;;;;;;;6.16;65.23;99505.13;5108795;28;19919;-87
2021/12/26 10:44:46;;;;;;;;;;;;;;;6.28;64.26;99480.69;5114596;28;19920;-87
2021/12/26 10:47:13;;;;;;;;;;;;;;;6.43;63.32;99491.16;5112488;28;20428;-87
2021/12/26 10:49:40;;;;;;;;;;;;;;;6.54;63.49;99483.28;5114377;28;19916;-87
2021/12/26 10:52:14;;;;;;;;;;;;;;;6.43;63.77;99492.91;5114007;28;19916;-87
2021/12/26 10:54:44;;;;;;;;;;;;;;;6.42;64.31;99485.91;5114409;28;19923;-85
2021/12/26 10:57:23;;;;;;;;;;;;;;;6.75;63.19;99487.59;5114032;28;19916;-87
2021/12/26 10:59:57;;;;;;;;;;;;;;;6.86;62.61;99492.81;5112874;28;19916;-87
2021/12/26 11:02:24;;;;;;;;;;;;;;;6.90;62.50;99496.28;5113965;27;19916;-87
2021/12/26 11:04:54;;;;;;;;;;;;;;;6.97;62.99;99492.78;5113844;27;19934;-88
2021/12/26 11:07:20;;;;;;;;;;;;;;;7.08;62.57;99498.84;5113158;28;19984;-87
2021/12/26 11:09:45;;;;;;;;;;;;;;;6.39;64.13;99496.41;5113827;27;19916;-87
2021/12/26 11:12:11;;;;;;;;;;;;;;;6.59;64.15;99486.75;5113131;28;20420;-87
2021/12/26 11:14:54;;;;;;;;;;;;;;;6.83;62.99;99487.56;5113972;28;19937;-86
2021/12/26 11:17:29;;;;;;;;;;;;;;;6.80;63.25;99483.19;5113983;28;19923;-86
2021/12/26 11:19:54;;;;;;;;;;;;;;;7.26;62.27;99465.53;5113612;28;19916;-86
2021/12/26 11:22:20;;;;;;;;;;;;;;;7.38;61.08;99460.22;5113643;28;19915;-87
2021/12/26 11:24:45;;;;;;;;;;;;;;;7.40;61.40;99463.72;5113620;28;19922;-87
2021/12/26 11:27:11;;;;;;;;;;;;;;;7.46;61.16;99468.03;5113281;28;20416;-87
2021/12/26 11:29:36;;;;;;;;;;;;;;;7.50;61.63;99467.16;5113114;28;20048;-84
2021/12/26 11:32:02;;;;;;;;;;;;;;;7.85;59.31;99466.91;5112236;28;20382;-85
2021/12/26 11:34:29;;;;;;;;;;;;;;;7.64;59.79;99467.91;5113854;28;19927;-84
2021/12/26 11:36:54;;;;;;;;;;;;;;;7.52;60.96;99455.78;5112254;28;19977;-84
2021/12/26 11:39:20;;;;;;;;;;;;;;;7.65;61.27;99466.19;5113142;28;19971;-85
2021/12/26 11:41:54;;;;;;;;;;;;;;;7.59;61.56;99463.59;5112348;28;19927;-86
2021/12/26 11:44:31;;;;;;;;;;;;;;;7.60;61.64;99463.59;5113023;27;19919;-86
2021/12/26 11:46:58;;;;;;;;;;;;;;;8.02;61.91;99468.53;5111858;28;19916;-87
2021/12/26 11:49:39;;;;;;;;;;;;;;;7.84;60.79;99472.16;5113154;28;19916;-87
2021/12/26 11:52:10;;;;;;;;;;;;;;;7.84;61.41;99480.06;5112702;28;20002;-87
2021/12/26 11:54:54;;;;;;;;;;;;;;;7.57;61.42;99468.88;5112844;28;20000;-85
2021/12/26 11:57:38;;;;;;;;;;;;;;;7.34;62.47;99487.38;5112841;28;19916;-86
2021/12/26 12:00:05;;;;;;;;;;;;;;;7.30;62.36;99486.50;5112646;28;20394;-85
2021/12/26 12:02:33;;;;;;;;;;;;;;;7.44;62.22;99490.81;5112840;28;19915;-86
2021/12/26 12:05:09;;;;;;;;;;;;;;;7.23;62.67;99492.66;5092350;28;20329;-85
2021/12/26 12:07:45;;;;;;;;;;;;;;;7.26;62.56;99479.53;5091521;28;19920;-85
2021/12/26 12:10:29;;;;;;;;;;;;;;;7.02;63.11;99485.75;5092147;28;20401;-85
2021/12/26 12:12:54;;;;;;;;;;;;;;;6.99;63.48;99491.00;5106372;28;19955;-86
2021/12/26 12:15:39;;;;;;;;;;;;;;;6.87;63.61;99507.66;5110632;28;19948;-85
2021/12/26 12:18:09;;;;;;;;;;;;;;;6.81;64.19;99503.31;5111474;28;19943;-86
2021/12/26 12:20:35;;;;;;;;;;;;;;;6.57;65.27;99500.75;5111550;28;19942;-84
2021/12/26 12:23:01;;;;;;;;;;;;;;;6.76;65.27;99498.94;5112259;28;20444;-84
2021/12/26 12:25:38;;;;;;;;;;;;;;;6.75;65.14;99498.09;5111295;28;20126;-86
2021/12/26 12:28:14;;;;;;;;;;;;;;;6.69;65.54;99502.44;5112102;28;19915;-86
2021/12/26 12:30:41;;;;;;;;;;;;;;;6.92;65.12;99505.00;5111191;28;20373;-86
2021/12/26 12:33:21;;;;;;;;;;;;;;;6.82;65.37;99517.28;5111478;28;20501;-86
2021/12/26 12:36:09;;;;;;;;;;;;;;;7.07;65.27;99510.19;5111742;28;19911;-86
2021/12/26 12:38:39;;;;;;;;;;;;;;;7.18;65.11;99502.28;5112187;28;19953;-83
2021/12/26 12:41:08;;;;;;;;;;;;;;;7.32;64.50;99491.72;5110840;28;19923;-86
2021/12/26 12:43:41;;;;;;;;;;;;;;;7.38;64.27;99491.69;5112064;28;19923;-85
2021/12/26 12:46:09;;;;;;;;;;;;;;;7.47;63.86;99481.16;5110705;28;20131;-85
2021/12/26 12:48:34;;;;;;;;;;;;;;;7.65;62.85;99492.44;5111725;28;19970;-85
2021/12/26 12:51:01;;;;;;;;;;;;;;;7.72;62.65;99473.13;5110653;28;19955;-84
2021/12/26 12:53:38;;;;;;;;;;;;;;;7.85;62.42;99473.94;5111613;27;20286;-84
2021/12/26 12:56:03;;;;;;;;;;;;;;;7.83;62.45;99479.19;5110890;28;19920;-83
2021/12/26 12:58:32;;;;;;;;;;;;;;;7.84;62.23;99483.53;5110836;28;19927;-83